Time;durP1;ratioP1;P1;durP2;ratioP2;P2;SDS_P1;SDS_P2;PMS_P1;PMS_P2;Temp;Humidity;BMP_temperature;BMP_pressure;BME280_temperature;BME280_humidity;BME280_pressure;Samples;Min_cycle;Max_cycle;Signal;HPM_P1;HPM_P2
2022/04/14 00:00:53;;;;;;;3.05;2.10;;;;;;;12.03;nan;100557.97;5007118;28;20037;-72
2022/04/14 00:03:19;;;;;;;4.93;2.70;;;;;;;12.04;nan;100556.16;5007509;28;20057;-72
2022/04/14 00:05:45;;;;;;;6.13;2.78;;;;;;;11.99;nan;100548.69;5005020;28;20176;-72
2022/04/14 00:08:10;;;;;;;4.68;2.20;;;;;;;11.97;nan;100560.44;5005811;28;20129;-73
2022/04/14 00:10:36;;;;;;;4.05;2.10;;;;;;;11.93;nan;100553.78;5005480;28;20038;-72
2022/04/14 00:13:01;;;;;;;4.10;1.80;;;;;;;11.89;nan;100554.13;5008935;28;20494;-72
2022/04/14 00:15:28;;;;;;;3.55;2.10;;;;;;;11.86;nan;100557.03;5006336;28;20060;-72
2022/04/14 00:17:54;;;;;;;4.53;2.20;;;;;;;11.82;nan;100553.06;5007682;28;20065;-72
2022/04/14 00:20:19;;;;;;;3.50;2.30;;;;;;;11.78;nan;100554.38;5007068;28;20112;-72
2022/04/14 00:22:44;;;;;;;2.78;1.92;;;;;;;11.74;nan;100562.78;5005728;28;20034;-73
2022/04/14 00:25:11;;;;;;;;;;;;;;;11.66;nan;100551.16;5008011;28;20041;-73
2022/04/14 00:27:37;;;;;;;4.72;2.45;;;;;;;11.63;nan;100559.44;5006212;28;20515;-73
2022/04/14 00:30:03;;;;;;;4.35;2.20;;;;;;;11.60;nan;100566.84;5007251;28;20049;-73
2022/04/14 00:32:28;;;;;;;5.75;2.53;;;;;;;11.59;nan;100562.56;5005814;28;20046;-73
2022/04/14 00:34:53;;;;;;;4.88;2.30;;;;;;;11.59;nan;100571.31;5006544;28;20150;-73
2022/04/14 00:37:19;;;;;;;4.00;2.40;;;;;;;11.61;nan;100568.53;5007240;28;20116;-73
2022/04/14 00:39:44;;;;;;;5.47;2.53;;;;;;;11.64;nan;100569.03;5007995;28;20352;-73
2022/04/14 00:42:11;;;;;;;4.95;2.60;;;;;;;11.61;nan;100569.34;5007842;28;20049;-73
2022/04/14 00:44:36;;;;;;;4.97;2.90;;;;;;;11.53;nan;100568.47;5005780;28;20034;-73
2022/04/14 00:47:03;;;;;;;5.60;2.50;;;;;;;11.53;nan;100573.75;4972120;28;20045;-73
2022/04/14 00:49:28;;;;;;;4.53;2.40;;;;;;;11.48;nan;100569.75;5005624;28;20091;-73
2022/04/14 00:51:53;;;;;;;3.85;2.17;;;;;;;11.45;nan;100575.38;5005830;28;20072;-73
2022/04/14 00:54:19;;;;;;;4.20;2.05;;;;;;;11.43;nan;100572.06;5006918;28;20063;-73
2022/04/14 00:56:44;;;;;;;6.35;2.90;;;;;;;11.38;nan;100569.03;5005346;28;20505;-73
2022/04/14 00:59:09;;;;;;;6.03;2.83;;;;;;;11.36;nan;100573.66;5004186;28;20092;-73
2022/04/14 01:01:35;;;;;;;3.70;2.40;;;;;;;11.36;nan;100573.66;5004971;28;20033;-73
2022/04/14 01:04:00;;;;;;;4.28;2.60;;;;;;;11.35;nan;100577.31;5002242;28;20034;-73
2022/04/14 01:06:27;;;;;;;3.78;2.35;;;;;;;11.34;nan;100586.22;5005954;28;20100;-73
2022/04/14 01:11:38;;;;;;;5.13;3.53;;;;;;;11.30;nan;100584.03;5004148;28;20049;-73
2022/04/14 01:14:03;;;;;;;5.88;3.33;;;;;;;11.27;nan;100591.31;4990193;28;20505;-73
2022/04/14 01:16:29;;;;;;;5.53;3.17;;;;;;;11.27;nan;100596.63;5003951;28;20049;-73
2022/04/14 01:18:54;;;;;;;6.35;3.67;;;;;;;11.28;nan;100594.78;5005884;28;20117;-73
2022/04/14 01:21:21;;;;;;;4.75;3.20;;;;;;;11.26;nan;100597.59;5006178;28;20037;-73
2022/04/14 01:23:48;;;;;;;6.53;3.30;;;;;;;11.30;nan;100599.91;5005646;28;20034;-73
2022/04/14 01:26:14;;;;;;;6.53;3.53;;;;;;;11.33;nan;100595.16;5005062;28;20040;-73
2022/04/14 01:28:39;;;;;;;6.35;3.63;;;;;;;11.32;nan;100590.00;5006229;28;20081;-73
2022/04/14 01:31:05;;;;;;;5.53;3.10;;;;;;;11.33;nan;100596.97;5004189;28;20176;-73
2022/04/14 01:33:30;;;;;;;5.95;2.67;;;;;;;11.36;nan;100591.38;5005581;28;20491;-73
2022/04/14 01:35:55;;;;;;;6.63;3.25;;;;;;;11.36;nan;100592.19;5006577;28;20661;-73
2022/04/14 01:38:21;;;;;;;6.80;3.75;;;;;;;11.37;nan;100596.53;5006323;28;20448;-73
2022/04/14 01:40:46;;;;;;;5.35;2.92;;;;;;;11.40;nan;100590.91;5003650;28;20048;-72
2022/04/14 01:43:12;;;;;;;3.80;2.30;;;;;;;11.53;nan;100598.41;5004786;28;20416;-73
2022/04/14 01:45:37;;;;;;;4.50;2.30;;;;;;;11.48;nan;100604.19;5004133;28;20034;-73
2022/04/14 01:48:02;;;;;;;6.60;3.08;;;;;;;11.48;nan;100606.00;5004644;28;20036;-73
2022/04/14 01:50:28;;;;;;;6.97;3.35;;;;;;;11.40;nan;100614.72;5004244;28;20121;-73
2022/04/14 01:52:53;;;;;;;3.80;2.57;;;;;;;11.55;nan;100616.81;5004760;28;20420;-73
2022/04/14 01:55:18;;;;;;;5.65;2.67;;;;;;;11.50;nan;100617.28;5004965;28;20042;-73
2022/04/14 01:57:45;;;;;;;4.68;2.83;;;;;;;11.46;nan;100618.56;5005431;28;20041;-73
2022/04/14 02:00:13;;;;;;;4.13;2.72;;;;;;;11.42;nan;100618.06;5006070;28;20065;-73
2022/04/14 02:02:39;;;;;;;3.78;2.17;;;;;;;11.40;nan;100621.84;5004853;28;20034;-73
2022/04/14 02:05:04;;;;;;;4.45;2.67;;;;;;;11.42;nan;100626.00;5006276;28;20319;-73
2022/04/14 02:07:30;;;;;;;5.25;2.50;;;;;;;11.40;nan;100630.63;5008161;28;20041;-73
2022/04/14 02:09:56;;;;;;;7.93;2.90;;;;;;;11.36;nan;100636.38;5004599;28;20121;-73
2022/04/14 02:12:21;;;;;;;5.03;2.30;;;;;;;11.31;nan;100638.66;5004147;28;20038;-73
2022/04/14 02:14:46;;;;;;;3.92;2.05;;;;;;;11.41;nan;100645.50;5005739;28;20810;-73
2022/04/14 02:17:12;;;;;;;4.05;2.08;;;;;;;11.33;nan;100636.69;4987754;28;20196;-73
2022/04/14 02:19:37;;;;;;;4.07;1.98;;;;;;;11.27;nan;100641.63;5004230;28;20124;-73
2022/04/14 02:22:02;;;;;;;4.03;2.17;;;;;;;11.23;nan;100632.31;5006486;28;20116;-73
2022/04/14 02:24:28;;;;;;;3.38;1.98;;;;;;;11.22;nan;100637.75;5004355;28;20072;-73
2022/04/14 02:26:53;;;;;;;5.28;2.42;;;;;;;11.20;nan;100637.94;5005317;28;20133;-75
2022/04/14 02:29:19;;;;;;;3.15;1.98;;;;;;;11.17;nan;100634.75;5004183;28;20037;-73
2022/04/14 02:31:45;;;;;;;;;;;;;;;11.10;nan;100631.88;5007524;28;20045;-73
2022/04/14 02:34:10;;;;;;;;;;;;;;;11.05;nan;100634.97;5003012;28;20196;-73
2022/04/14 02:36:35;;;;;;;5.07;2.47;;;;;;;10.99;nan;100638.25;5005579;28;19922;-73
2022/04/14 02:39:02;;;;;;;4.47;2.70;;;;;;;10.93;nan;100638.81;5005481;28;20360;-73
2022/04/14 02:41:27;;;;;;;4.53;2.50;;;;;;;10.86;nan;100642.25;5004638;28;20044;-73
2022/04/14 02:43:52;;;;;;;4.03;2.80;;;;;;;10.82;nan;100636.41;5007237;28;20038;-73
2022/04/14 02:46:17;;;;;;;3.72;2.50;;;;;;;10.78;nan;100638.53;5011779;28;20494;-73
2022/04/14 02:48:43;;;;;;;3.63;2.10;;;;;;;10.75;nan;100627.41;5012378;28;20030;-73
2022/04/14 02:51:08;;;;;;;5.25;2.63;;;;;;;10.73;nan;100634.69;5012554;28;20606;-73
2022/04/14 02:53:34;;;;;;;4.95;2.58;;;;;;;10.70;nan;100632.31;5011574;28;20080;-73
2022/04/14 02:55:59;;;;;;;4.10;2.30;;;;;;;10.67;nan;100640.56;5008122;28;20121;-73
2022/04/14 02:58:25;;;;;;;4.28;2.80;;;;;;;10.61;nan;100634.88;5008513;28;20053;-73
2022/04/14 03:00:50;;;;;;;5.15;3.13;;;;;;;10.60;nan;100645.59;5009205;28;20030;-73
2022/04/14 03:03:16;;;;;;;4.80;2.47;;;;;;;10.61;nan;100642.00;5006274;28;20038;-73
2022/04/14 03:05:42;;;;;;;4.40;2.45;;;;;;;10.61;nan;100648.13;5009105;28;20053;-73
2022/04/14 03:08:07;;;;;;;4.05;2.20;;;;;;;10.59;nan;100649.25;5009011;28;20181;-73
2022/04/14 03:10:32;;;;;;;3.63;2.17;;;;;;;10.54;nan;100644.41;5006860;28;20052;-73
2022/04/14 03:12:57;;;;;;;3.17;2.10;;;;;;;10.53;nan;100645.34;5009685;28;20042;-73
2022/04/14 03:15:23;;;;;;;3.42;2.42;;;;;;;10.51;nan;100650.00;5008570;28;20092;-73
2022/04/14 03:17:50;;;;;;;5.10;2.60;;;;;;;10.48;nan;100652.91;5009094;28;20300;-73
2022/04/14 03:20:16;;;;;;;5.28;2.50;;;;;;;10.49;nan;100651.13;5008839;28;20044;-73
2022/04/14 03:22:41;;;;;;;3.90;2.40;;;;;;;10.46;nan;100651.41;5007662;28;20418;-73
2022/04/14 03:25:08;;;;;;;5.70;2.75;;;;;;;10.44;nan;100650.72;5008623;28;20040;-73
2022/04/14 03:27:34;;;;;;;3.88;2.13;;;;;;;10.41;nan;100646.56;5006730;28;20422;-73
2022/04/14 03:30:00;;;;;;;3.47;2.60;;;;;;;10.39;nan;100649.38;5008353;28;20536;-73
2022/04/14 03:32:25;;;;;;;5.57;2.45;;;;;;;10.43;nan;100646.41;5006030;28;20041;-73
2022/04/14 03:34:52;;;;;;;5.53;3.10;;;;;;;10.46;nan;100648.75;5008067;28;20041;-73
2022/04/14 03:37:18;;;;;;;6.30;3.50;;;;;;;10.45;nan;100649.75;5007765;28;20042;-73
2022/04/14 03:39:43;;;;;;;7.38;2.97;;;;;;;10.40;nan;100645.72;5006482;28;20088;-73
2022/04/14 03:42:08;;;;;;;3.58;2.50;;;;;;;10.37;nan;100655.78;5006655;28;20092;-73
2022/04/14 03:44:34;;;;;;;5.45;2.97;;;;;;;10.31;nan;100657.19;5007170;28;20060;-73
2022/04/14 03:46:59;;;;;;;5.60;3.35;;;;;;;10.30;nan;100660.00;5003709;28;20659;-73
2022/04/14 03:49:24;;;;;;;6.25;3.33;;;;;;;10.26;nan;100658.56;5007119;28;20044;-73
2022/04/14 03:51:52;;;;;;;4.82;3.10;;;;;;;10.24;nan;100652.59;5007012;28;20068;-73
2022/04/14 03:54:17;;;;;;;5.35;2.83;;;;;;;10.21;nan;100659.00;5007522;28;20395;-73
2022/04/14 03:56:46;;;;;;;5.93;3.50;;;;;;;10.17;nan;100662.91;5007862;28;20038;-73
2022/04/14 03:59:13;;;;;;;5.50;3.80;;;;;;;10.11;nan;100666.97;5006405;28;20034;-73
2022/04/14 04:01:38;;;;;;;5.72;3.33;;;;;;;10.08;nan;100671.72;5006804;28;20034;-73
2022/04/14 04:04:04;;;;;;;5.57;3.60;;;;;;;10.05;nan;100669.38;5008008;28;20056;-73
2022/04/14 04:06:29;;;;;;;5.32;2.80;;;;;;;10.04;nan;100675.63;5010122;28;20291;-73
2022/04/14 04:08:54;;;;;;;3.67;2.58;;;;;;;10.05;nan;100672.00;5008135;28;20117;-73
2022/04/14 04:11:20;;;;;;;4.65;3.05;;;;;;;10.05;nan;100679.94;5007635;28;20125;-73
2022/04/14 04:13:45;;;;;;;5.60;2.45;;;;;;;10.03;nan;100673.97;5006110;28;20445;-73
2022/04/14 04:16:11;;;;;;;6.25;2.70;;;;;;;10.02;nan;100669.66;5006693;28;20088;-73
2022/04/14 04:18:36;;;;;;;7.45;2.80;;;;;;;10.02;nan;100669.66;5006779;28;20045;-73
2022/04/14 04:21:01;;;;;;;4.68;2.97;;;;;;;9.99;nan;100668.16;5004538;28;20034;-73
2022/04/14 04:23:27;;;;;;;5.10;2.90;;;;;;;9.96;nan;100671.91;5006656;28;20117;-73
2022/04/14 04:25:52;;;;;;;4.85;2.80;;;;;;;9.97;nan;100673.56;5006647;28;20124;-73
2022/04/14 04:28:17;;;;;;;5.18;3.22;;;;;;;9.96;nan;100678.97;5007376;28;20200;-73
2022/04/14 04:30:43;;;;;;;9.65;4.30;;;;;;;9.94;nan;100681.78;5006308;28;20034;-73
2022/04/14 04:33:08;;;;;;;9.32;4.85;;;;;;;10.01;nan;100687.34;5006996;28;20042;-73
2022/04/14 04:35:33;;;;;;;6.03;3.80;;;;;;;10.05;nan;100691.31;5006397;28;20030;-73
2022/04/14 04:37:59;;;;;;;7.97;4.65;;;;;;;10.06;nan;100689.50;5004038;28;20041;-73
2022/04/14 04:40:24;;;;;;;7.00;4.72;;;;;;;10.13;nan;100701.16;4990431;28;20040;-73
2022/04/14 04:42:49;;;;;;;7.15;4.78;;;;;;;10.18;nan;100698.94;5006794;28;20062;-73
2022/04/14 04:45:14;;;;;;;7.75;4.55;;;;;;;10.23;nan;100709.91;5007319;28;20443;-73
2022/04/14 04:47:40;;;;;;;7.60;4.72;;;;;;;10.32;nan;100706.44;5004806;28;20088;-72
2022/04/14 04:50:07;;;;;;;5.30;3.97;;;;;;;10.41;nan;100704.72;5006726;28;20053;-73
2022/04/14 04:52:36;;;;;;;6.00;4.38;;;;;;;10.49;nan;100711.94;5007392;28;20038;-73
2022/04/14 04:55:02;;;;;;;6.63;4.18;;;;;;;10.55;nan;100711.31;5008199;28;20037;-73
2022/04/14 04:57:27;;;;;;;5.88;4.57;;;;;;;10.61;nan;100714.22;5007104;28;20038;-73
2022/04/14 04:59:53;;;;;;;7.57;4.70;;;;;;;10.68;nan;100706.53;5007368;28;20030;-73
2022/04/14 05:02:18;;;;;;;7.93;5.20;;;;;;;10.74;nan;100707.75;5007039;28;20042;-73
2022/04/14 05:04:43;;;;;;;7.38;5.68;;;;;;;10.79;nan;100719.53;5008378;28;20044;-73
2022/04/14 05:07:09;;;;;;;10.75;5.82;;;;;;;10.86;nan;100716.31;5007188;28;20042;-73
2022/04/14 05:09:34;;;;;;;9.48;6.22;;;;;;;10.91;nan;100717.50;5007339;28;20502;-73
2022/04/14 05:11:59;;;;;;;7.90;6.03;;;;;;;10.97;nan;100719.56;5006973;28;20037;-73
2022/04/14 05:14:25;;;;;;;10.13;6.78;;;;;;;11.05;nan;100722.28;5006481;28;20052;-73
2022/04/14 05:16:50;;;;;;;7.38;5.47;;;;;;;11.14;nan;100720.56;5007641;28;20038;-73
2022/04/14 05:19:15;;;;;;;7.40;5.50;;;;;;;11.26;nan;100723.81;5004970;28;20046;-73
2022/04/14 05:21:41;;;;;;;7.97;6.18;;;;;;;11.39;nan;100726.06;5006163;28;20040;-73
2022/04/14 05:24:06;;;;;;;9.55;7.22;;;;;;;11.53;nan;100724.72;5007110;28;20037;-74
2022/04/14 05:26:32;;;;;;;12.20;9.65;;;;;;;11.64;nan;100724.47;5005597;28;20068;-73
2022/04/14 05:28:57;;;;;;;10.40;7.30;;;;;;;11.81;nan;100731.56;5004864;28;20061;-73
2022/04/14 05:31:22;;;;;;;9.77;7.10;;;;;;;11.94;nan;100722.38;5005789;28;20118;-73
2022/04/14 05:33:49;;;;;;;11.65;7.82;;;;;;;12.02;nan;100728.59;5006122;28;20643;-73
2022/04/14 05:36:14;;;;;;;6.75;5.78;;;;;;;12.24;nan;100742.28;5003102;28;20496;-73
2022/04/14 05:38:40;;;;;;;10.95;7.55;;;;;;;12.25;nan;100751.91;5006062;28;20121;-73
2022/04/14 05:41:05;;;;;;;9.50;7.43;;;;;;;12.26;nan;100740.31;5005799;28;20521;-73
2022/04/14 05:43:30;;;;;;;8.88;6.40;;;;;;;12.29;nan;100737.34;5004079;28;20288;-73
2022/04/14 05:45:56;;;;;;;10.38;7.20;;;;;;;12.29;nan;100743.47;5006588;28;20050;-73
2022/04/14 05:48:22;;;;;;;9.80;7.28;;;;;;;12.30;nan;100746.97;5006837;28;20053;-73
2022/04/14 05:50:49;;;;;;;9.10;6.50;;;;;;;12.32;nan;100747.63;5004857;28;20041;-73
2022/04/14 05:53:17;;;;;;;10.15;6.95;;;;;;;12.32;nan;100759.09;5006256;28;20037;-73
2022/04/14 05:55:47;;;;;;;10.52;7.75;;;;;;;12.31;nan;100762.72;5005014;28;20395;-73
2022/04/14 05:58:12;;;;;;;7.20;6.00;;;;;;;12.32;nan;100768.84;5005398;28;20105;-74
2022/04/14 06:00:38;;;;;;;7.28;5.43;;;;;;;12.34;nan;100769.53;5008991;28;20038;-74
2022/04/14 06:03:03;;;;;;;9.30;7.13;;;;;;;12.35;nan;100765.91;5008501;28;20034;-73
2022/04/14 06:05:30;;;;;;;7.32;6.15;;;;;;;12.39;nan;100764.56;5008567;28;20037;-73
2022/04/14 06:07:56;;;;;;;9.65;6.25;;;;;;;12.44;nan;100764.97;5007711;28;20046;-73
2022/04/14 06:10:23;;;;;;;10.98;8.02;;;;;;;12.47;nan;100769.09;5008165;28;20096;-73
2022/04/14 06:12:49;;;;;;;11.80;8.10;;;;;;;12.53;nan;100763.16;5004341;28;20033;-73
2022/04/14 06:15:15;;;;;;;12.75;7.88;;;;;;;12.59;nan;100767.00;4988581;28;20038;-73
2022/04/14 06:17:42;;;;;;;11.25;8.30;;;;;;;12.69;nan;100763.22;5010110;28;20045;-73
2022/04/14 06:20:08;;;;;;;8.93;6.30;;;;;;;12.91;nan;100768.94;5009352;28;20033;-73
2022/04/14 06:22:41;;;;;;;12.63;8.57;;;;;;;13.09;nan;100767.00;5013764;28;20376;-73
2022/04/14 06:25:12;;;;;;;13.82;9.55;;;;;;;13.30;nan;100771.91;5011003;28;20041;-73
2022/04/14 06:27:44;;;;;;;12.98;9.20;;;;;;;13.56;nan;100770.91;5006506;28;20068;-73
2022/04/14 06:30:11;;;;;;;11.70;8.80;;;;;;;13.82;nan;100770.75;5005497;28;20525;-74
2022/04/14 06:32:37;;;;;;;11.30;7.60;;;;;;;14.23;nan;100778.72;5009393;28;20049;-74
2022/04/14 06:35:05;;;;;;;9.38;6.70;;;;;;;14.63;nan;100769.81;5012623;28;20027;-73
2022/04/14 06:37:31;;;;;;;9.38;7.32;;;;;;;14.97;nan;100771.31;5009722;28;20122;-73
2022/04/14 06:39:56;;;;;;;13.63;8.88;;;;;;;15.12;nan;100773.22;5010098;28;20614;-73
2022/04/14 06:42:22;;;;;;;12.18;8.10;;;;;;;15.32;nan;100763.75;5006492;28;20121;-73
2022/04/14 06:44:47;;;;;;;13.15;8.63;;;;;;;15.39;nan;100771.88;5008920;28;20075;-74
2022/04/14 06:47:13;;;;;;;11.27;8.20;;;;;;;15.44;nan;100774.84;5011881;28;20038;-73
2022/04/14 06:49:39;;;;;;;9.68;6.90;;;;;;;15.39;nan;100774.53;5010165;28;20037;-73
2022/04/14 06:52:04;;;;;;;9.88;7.05;;;;;;;15.36;nan;100767.75;5003264;28;20034;-73
2022/04/14 06:54:30;;;;;;;10.23;6.60;;;;;;;15.40;nan;100770.91;5006431;28;20041;-73
2022/04/14 06:56:55;;;;;;;14.35;9.63;;;;;;;15.15;nan;100772.88;5009572;28;20076;-73
2022/04/14 06:59:20;;;;;;;13.23;9.32;;;;;;;15.15;nan;100773.69;5011142;28;20425;-73
2022/04/14 07:01:46;;;;;;;10.57;7.53;;;;;;;15.23;nan;100773.66;5007228;28;20490;-74
2022/04/14 07:04:11;;;;;;;11.23;7.85;;;;;;;15.34;nan;100764.41;5008366;28;20049;-74
2022/04/14 07:06:36;;;;;;;9.30;7.20;;;;;;;15.47;nan;100772.66;5005268;28;20142;-74
2022/04/14 07:09:02;;;;;;;9.98;7.38;;;;;;;15.62;nan;100774.56;5008954;28;20072;-73
2022/04/14 07:11:27;;;;;;;8.60;6.25;;;;;;;15.79;nan;100772.63;5007842;28;20058;-74
2022/04/14 07:13:52;;;;;;;11.07;7.30;;;;;;;15.81;nan;100767.94;5009350;28;20569;-74
2022/04/14 07:16:18;;;;;;;8.30;7.17;;;;;;;16.01;nan;100778.91;5009007;28;20440;-73
2022/04/14 07:18:43;;;;;;;12.38;8.27;;;;;;;15.87;nan;100773.38;5008708;28;20038;-74
2022/04/14 07:21:08;;;;;;;14.18;8.88;;;;;;;15.92;nan;100786.16;5010463;28;20040;-73
2022/04/14 07:23:34;;;;;;;13.02;8.90;;;;;;;16.12;nan;100781.97;5008794;28;20030;-74
2022/04/14 07:25:59;;;;;;;13.75;9.60;;;;;;;16.14;nan;100784.47;5009083;28;20037;-73
2022/04/14 07:28:24;;;;;;;14.70;9.00;;;;;;;16.32;nan;100784.91;5005234;28;20118;-73
2022/04/14 07:30:50;;;;;;;8.95;6.93;;;;;;;16.61;nan;100777.09;5007866;28;20038;-74
2022/04/14 07:33:15;;;;;;;16.45;9.85;;;;;;;16.81;nan;100777.41;5006081;28;20113;-74
2022/04/14 07:35:41;;;;;;;12.57;9.10;;;;;;;16.88;nan;100775.66;5006653;28;20034;-74
2022/04/14 07:38:06;;;;;;;12.73;8.80;;;;;;;16.96;nan;100773.69;5007718;28;20095;-74
2022/04/14 07:40:31;;;;;;;12.90;10.18;;;;;;;17.02;nan;100784.63;4989529;28;20056;-74
2022/04/14 07:42:57;;;;;;;11.98;8.95;;;;;;;17.02;nan;100777.47;5009752;28;20072;-74
2022/04/14 07:45:23;;;;;;;14.50;10.77;;;;;;;17.02;nan;100782.81;5007146;28;20062;-74
2022/04/14 07:47:48;;;;;;;11.93;9.38;;;;;;;17.08;nan;100790.03;5006961;28;20030;-73
2022/04/14 07:50:15;;;;;;;11.88;9.27;;;;;;;17.18;nan;100798.63;5008707;28;20037;-74
2022/04/14 07:52:46;;;;;;;15.52;11.10;;;;;;;17.16;nan;100795.28;5008177;28;20038;-74
2022/04/14 07:55:11;;;;;;;15.70;11.30;;;;;;;17.26;nan;100807.53;5009077;28;20030;-74
2022/04/14 07:57:37;;;;;;;12.23;9.77;;;;;;;17.41;nan;100800.28;5005801;28;20657;-74
2022/04/14 08:00:05;;;;;;;10.45;7.22;;;;;;;17.74;nan;100805.94;5005736;28;20048;-74
2022/04/14 08:02:30;;;;;;;13.05;9.70;;;;;;;17.89;nan;100808.56;5006792;28;20037;-74
2022/04/14 08:04:56;;;;;;;10.55;8.68;;;;;;;18.20;nan;100815.41;5007820;28;20081;-74
2022/04/14 08:07:21;;;;;;;13.25;8.80;;;;;;;18.46;nan;100820.13;5006817;28;20033;-74
2022/04/14 08:09:46;;;;;;;13.45;9.00;;;;;;;18.69;nan;100830.56;5006113;28;20466;-74
2022/04/14 08:12:14;;;;;;;13.15;9.95;;;;;;;18.94;nan;100830.09;5007585;28;20044;-74
2022/04/14 08:14:39;;;;;;;12.75;9.13;;;;;;;19.23;nan;100837.81;5007735;28;20045;-74
2022/04/14 08:17:05;;;;;;;11.48;8.57;;;;;;;19.59;nan;100842.03;5007475;28;20450;-74
2022/04/14 08:19:31;;;;;;;14.13;10.93;;;;;;;19.61;nan;100849.91;5006510;28;20042;-74
2022/04/14 08:21:57;;;;;;;14.43;10.18;;;;;;;19.72;nan;100841.28;5006682;28;20048;-74
2022/04/14 08:24:24;;;;;;;14.00;11.02;;;;;;;19.92;nan;100850.16;5006717;28;20038;-74
2022/04/14 08:26:51;;;;;;;13.80;10.77;;;;;;;20.13;nan;100846.47;5006011;28;20454;-74
2022/04/14 08:29:18;;;;;;;18.05;12.60;;;;;;;20.20;nan;100842.97;5007348;28;20066;-74
2022/04/14 08:31:43;;;;;;;14.63;11.40;;;;;;;20.61;nan;100849.97;5005310;28;20073;-74
2022/04/14 08:34:09;;;;;;;13.90;10.68;;;;;;;20.87;nan;100838.31;5008375;28;20124;-74
2022/04/14 08:36:35;;;;;;;15.50;10.35;;;;;;;21.57;nan;100844.63;5005987;28;20038;-74
2022/04/14 08:39:01;;;;;;;14.15;11.20;;;;;;;21.96;nan;100849.94;5006738;28;20097;-74
2022/04/14 08:41:30;;;;;;;13.55;10.27;;;;;;;22.01;nan;100850.13;5010215;28;20526;-74
2022/04/14 08:44:01;;;;;;;16.38;12.38;;;;;;;22.21;nan;100847.28;5008782;28;20117;-74
2022/04/14 08:46:31;;;;;;;13.77;11.10;;;;;;;22.48;nan;100840.59;5008335;28;20304;-75
2022/04/14 08:48:57;;;;;;;13.20;10.23;;;;;;;22.34;nan;100840.97;5006008;28;20038;-75
2022/04/14 08:51:27;;;;;;;12.27;10.27;;;;;;;22.20;nan;100846.44;5007676;28;20045;-75
2022/04/14 08:53:53;;;;;;;12.30;9.10;;;;;;;22.41;nan;100841.72;5006702;28;20053;-74
2022/04/14 08:56:20;;;;;;;13.70;10.70;;;;;;;22.26;nan;100840.19;5005738;28;20520;-74
2022/04/14 08:58:47;;;;;;;13.00;10.00;;;;;;;22.15;nan;100840.88;5008031;28;20034;-74
2022/04/14 09:01:13;;;;;;;14.35;10.50;;;;;;;21.91;nan;100837.16;5005701;28;20518;-74
2022/04/14 09:03:39;;;;;;;12.98;10.60;;;;;;;21.66;nan;100836.28;5005312;28;20040;-74
2022/04/14 09:06:04;;;;;;;19.17;13.32;;;;;;;21.13;nan;100846.25;5006243;28;20046;-74
2022/04/14 09:08:29;;;;;;;16.25;12.10;;;;;;;20.68;nan;100846.22;5003315;28;20423;-74
2022/04/14 09:10:55;;;;;;;14.40;11.32;;;;;;;20.44;nan;100844.16;5006492;28;20041;-74
2022/04/14 09:13:20;;;;;;;14.43;10.65;;;;;;;20.43;nan;100845.22;5006704;28;20543;-74
2022/04/14 09:15:48;;;;;;;16.30;11.85;;;;;;;20.41;nan;100848.09;5005656;28;20061;-74
2022/04/14 09:18:14;;;;;;;17.17;12.55;;;;;;;20.19;nan;100849.34;5006392;28;20037;-74
2022/04/14 09:20:42;;;;;;;16.40;12.38;;;;;;;20.14;nan;100853.50;5005317;28;20041;-74
2022/04/14 09:23:21;;;;;;;14.25;11.20;;;;;;;20.17;nan;100851.44;5008393;28;20034;-74
2022/04/14 09:25:51;;;;;;;14.65;11.35;;;;;;;20.23;nan;100850.59;5004901;28;20076;-74
2022/04/14 09:28:19;;;;;;;18.48;12.80;;;;;;;20.07;nan;100850.00;4991621;28;20406;-74
2022/04/14 09:31:05;;;;;;;18.23;14.20;;;;;;;19.76;nan;100863.16;5007440;28;20091;-74
2022/04/14 09:33:32;;;;;;;18.65;13.68;;;;;;;19.97;nan;100852.22;5004710;28;20515;-74
2022/04/14 09:36:14;;;;;;;17.58;12.73;;;;;;;19.92;nan;100860.09;5008649;28;20034;-74
2022/04/14 09:39:05;;;;;;;16.15;11.55;;;;;;;19.87;nan;100858.00;5003689;28;20042;-74
2022/04/14 09:41:41;;;;;;;17.60;13.05;;;;;;;19.82;nan;100855.13;5008341;28;20053;-74
2022/04/14 09:44:12;;;;;;;16.90;12.75;;;;;;;19.78;nan;100861.09;5003578;28;20394;-74
2022/04/14 09:46:42;;;;;;;18.75;13.77;;;;;;;19.81;nan;100864.22;5007066;28;20068;-73
2022/04/14 09:49:15;;;;;;;17.45;12.93;;;;;;;19.49;nan;100865.75;5005581;28;20133;-74
2022/04/14 09:51:47;;;;;;;;;;;;;;;19.37;nan;100854.78;5002941;28;20499;-74
2022/04/14 09:54:18;;;;;;;19.15;13.75;;;;;;;19.26;nan;100861.56;5009475;28;20453;-74
2022/04/14 09:56:54;;;;;;;16.75;12.70;;;;;;;19.83;nan;100855.94;5012431;28;20037;-74
2022/04/14 09:59:22;;;;;;;15.15;12.07;;;;;;;20.42;nan;100856.97;5011386;28;20259;-74
2022/04/14 10:01:48;;;;;;;18.23;12.85;;;;;;;21.13;nan;100861.59;5012801;28;20037;-74
2022/04/14 10:04:34;;;;;;;14.02;10.50;;;;;;;22.22;nan;100863.22;5012606;28;20117;-74
2022/04/14 10:07:19;;;;;;;14.45;11.95;;;;;;;22.69;nan;100858.22;5012282;28;20117;-74
2022/04/14 10:09:49;;;;;;;17.23;12.52;;;;;;;22.07;nan;100851.91;5011810;28;20034;-74
2022/04/14 10:12:17;;;;;;;18.63;13.10;;;;;;;21.70;nan;100856.34;5011592;28;20045;-74
2022/04/14 10:14:44;;;;;;;14.48;11.98;;;;;;;21.83;nan;100848.16;5013100;28;20042;-74
2022/04/14 10:17:11;;;;;;;16.35;11.52;;;;;;;22.21;nan;100849.97;5012904;28;20487;-74
2022/04/14 10:19:36;;;;;;;15.63;12.20;;;;;;;22.87;nan;100859.25;5013535;28;20413;-74
2022/04/14 10:22:06;;;;;;;13.93;10.60;;;;;;;23.20;nan;100860.78;5011694;28;20034;-74
2022/04/14 10:24:35;;;;;;;18.38;11.32;;;;;;;23.27;nan;100858.81;5010667;28;20034;-74
2022/04/14 10:27:02;;;;;;;12.90;9.32;;;;;;;23.76;nan;100858.75;5014387;28;20370;-74
2022/04/14 10:29:29;;;;;;;14.68;11.52;;;;;;;24.59;nan;100857.78;5014566;28;20034;-74
2022/04/14 10:31:55;;;;;;;13.57;10.48;;;;;;;24.40;nan;100845.44;5013815;28;20538;-74
2022/04/14 10:34:24;;;;;;;10.52;8.07;;;;;;;25.01;nan;100846.78;5013240;28;20116;-74
2022/04/14 10:36:51;;;;;;;11.13;9.48;;;;;;;25.70;nan;100854.06;5015130;28;20145;-74
2022/04/14 10:39:18;;;;;;;12.82;8.70;;;;;;;25.80;nan;100854.22;5015455;28;20038;-75
2022/04/14 10:41:50;;;;;;;15.25;10.18;;;;;;;26.28;nan;100852.84;5010986;28;20034;-75
2022/04/14 10:44:20;;;;;;;13.65;9.90;;;;;;;26.76;nan;100861.41;4994438;28;20532;-74
2022/04/14 10:46:48;;;;;;;16.23;10.55;;;;;;;27.42;nan;100866.84;5014805;28;20042;-73
2022/04/14 10:49:15;;;;;;;11.73;9.00;;;;;;;27.33;nan;100861.03;5013448;28;20558;-73
2022/04/14 10:51:43;;;;;;;10.75;7.93;;;;;;;27.35;nan;100868.94;5010117;28;20357;-73
2022/04/14 10:54:10;;;;;;;13.48;10.30;;;;;;;25.97;nan;100862.41;5010914;28;20037;-73
2022/04/14 10:56:44;;;;;;;13.23;9.93;;;;;;;25.44;nan;100859.03;4994145;28;20426;-72
2022/04/14 10:59:12;;;;;;;11.40;9.18;;;;;;;24.91;nan;100855.53;5008210;28;20041;-73
2022/04/14 11:01:52;;;;;;;14.07;10.05;;;;;;;24.34;nan;100853.44;5005355;28;20053;-72
2022/04/14 11:04:32;;;;;;;10.27;8.57;;;;;;;24.77;nan;100849.56;5002504;28;20038;-73
2022/04/14 11:07:01;;;;;;;11.87;8.70;;;;;;;24.67;nan;100849.34;5006736;28;20053;-72
2022/04/14 11:09:41;;;;;;;12.60;8.60;;;;;;;24.55;nan;100853.91;5005575;28;20030;-73
2022/04/14 11:12:19;;;;;;;12.55;8.50;;;;;;;25.00;nan;100858.66;5006687;28;20431;-73
2022/04/14 11:15:05;;;;;;;11.13;8.15;;;;;;;25.07;nan;100859.34;5006968;28;20541;-73
2022/04/14 11:17:30;;;;;;;10.20;8.23;;;;;;;24.31;nan;100845.81;5007555;28;20045;-73
2022/04/14 11:20:16;;;;;;;9.27;6.88;;;;;;;24.77;nan;100846.03;5009142;28;20034;-73
2022/04/14 11:23:07;;;;;;;12.30;8.38;;;;;;;25.08;nan;100854.78;4966036;28;20029;-73
2022/04/14 11:25:44;;;;;;;9.55;6.90;;;;;;;24.86;nan;100854.56;5002940;28;20037;-73
2022/04/14 11:28:17;;;;;;;9.18;6.20;;;;;;;24.67;nan;100849.34;5007021;28;20129;-73
2022/04/14 11:30:42;;;;;;;13.27;9.15;;;;;;;24.70;nan;100843.44;5006197;28;20068;-73
2022/04/14 11:33:32;;;;;;;12.27;7.95;;;;;;;25.41;nan;100852.22;5007709;28;20057;-73
2022/04/14 11:36:19;;;;;;;8.93;6.13;;;;;;;25.82;nan;100847.50;5005622;28;20038;-73
2022/04/14 11:39:04;;;;;;;9.55;6.25;;;;;;;26.09;nan;100846.06;5005883;28;20042;-73